Aviation Digital Data Service (ADDS)

Output produced by METARs form (1342 UTC 20 November 2017)
found at http://aviationweather.gov/adds/metars/
 
KPQI 201134Z 2012/2112 28011G25KT P6SM BKN030 
     FM201500 28016G27KT P6SM BKN050 
     FM210200 28011KT P6SM SCT120